Time;durP1;ratioP1;P1;durP2;ratioP2;P2;SDS_P1;SDS_P2;PMS_P1;PMS_P2;Temp;Humidity;BMP_temperature;BMP_pressure;BME280_temperature;BME280_humidity;BME280_pressure;Samples;Min_cycle;Max_cycle;Signal;HPM_P1;HPM_P2
2022/02/14 00:00:16;;;;;;;12.18;6.10;;;10.90;99.90;;;;;;5051592;28;20036;-56
2022/02/14 00:02:42;;;;;;;14.80;6.78;;;10.90;99.90;;;;;;5051334;28;20025;-56
2022/02/14 00:05:08;;;;;;;11.07;6.30;;;10.90;99.90;;;;;;5051734;28;20060;-56
2022/02/14 00:07:33;;;;;;;16.10;6.68;;;10.90;99.90;;;;;;5051222;28;20025;-56
2022/02/14 00:09:59;;;;;;;11.05;6.40;;;10.90;99.90;;;;;;5051150;28;20052;-56
2022/02/14 00:12:25;;;;;;;15.73;6.05;;;10.90;99.90;;;;;;5050390;28;20110;-55
2022/02/14 00:14:51;;;;;;;9.82;4.45;;;10.90;99.90;;;;;;5050211;28;20029;-55
2022/02/14 00:17:16;;;;;;;11.05;5.25;;;10.90;99.90;;;;;;5050423;28;20392;-55
2022/02/14 00:19:42;;;;;;;11.23;5.13;;;10.90;99.90;;;;;;5051086;28;20021;-55
2022/02/14 00:22:08;;;;;;;10.95;5.80;;;10.90;99.90;;;;;;5052130;28;20440;-55
2022/02/14 00:24:33;;;;;;;10.90;5.63;;;10.90;99.90;;;;;;5052002;28;20025;-55
2022/02/14 00:26:59;;;;;;;16.13;6.72;;;10.90;99.90;;;;;;5050820;28;20129;-56
2022/02/14 00:29:25;;;;;;;11.70;6.43;;;10.90;99.90;;;;;;5050829;28;20459;-56
2022/02/14 00:31:51;;;;;;;11.73;5.25;;;10.90;99.90;;;;;;5051115;28;20029;-55
2022/02/14 00:34:17;;;;;;;13.30;6.05;;;10.90;99.90;;;;;;5051535;28;20544;-55
2022/02/14 00:36:43;;;;;;;8.07;4.38;;;10.90;99.90;;;;;;5050964;28;20489;-55
2022/02/14 00:39:11;;;;;;;10.50;4.32;;;11.00;99.90;;;;;;5051204;28;20028;-56
2022/02/14 00:41:37;;;;;;;7.57;4.00;;;10.90;99.90;;;;;;5051449;28;20017;-56
2022/02/14 00:44:03;;;;;;;11.82;4.10;;;10.90;99.90;;;;;;5050804;28;20382;-56
2022/02/14 00:46:28;;;;;;;9.05;4.65;;;11.00;99.90;;;;;;5053371;28;20070;-56
2022/02/14 00:48:54;;;;;;;10.68;4.00;;;10.90;99.90;;;;;;5054974;28;20029;-56
2022/02/14 00:51:19;;;;;;;11.02;4.07;;;11.00;99.90;;;;;;5055161;28;20025;-56
2022/02/14 00:53:45;;;;;;;6.05;2.75;;;11.00;99.90;;;;;;5054810;28;20116;-56
2022/02/14 00:56:11;;;;;;;8.20;3.95;;;11.10;99.90;;;;;;5054536;28;20068;-56
2022/02/14 00:58:36;;;;;;;6.00;2.95;;;11.10;99.90;;;;;;5054225;28;20029;-56
2022/02/14 01:01:02;;;;;;;7.22;2.80;;;11.10;99.90;;;;;;5054200;28;20021;-56
2022/02/14 01:03:28;;;;;;;7.50;3.58;;;11.10;99.90;;;;;;5054725;28;20085;-56
2022/02/14 01:05:53;;;;;;;9.48;4.30;;;11.10;99.90;;;;;;5054564;28;20025;-56
2022/02/14 01:08:19;;;;;;;6.70;3.50;;;11.10;99.90;;;;;;5054627;28;20100;-56
2022/02/14 01:10:45;;;;;;;7.32;3.88;;;11.00;99.90;;;;;;5054082;28;20061;-56
2022/02/14 01:13:10;;;;;;;9.15;4.13;;;11.00;99.90;;;;;;5054619;28;20072;-56
2022/02/14 01:15:36;;;;;;;9.27;3.92;;;11.00;99.90;;;;;;5054466;28;20021;-56
2022/02/14 01:18:02;;;;;;;8.43;4.38;;;10.90;99.90;;;;;;5054176;28;20486;-56
2022/02/14 01:20:27;;;;;;;14.23;4.05;;;10.90;99.90;;;;;;5054537;28;20025;-56
2022/02/14 01:22:53;;;;;;;9.20;3.72;;;11.00;99.90;;;;;;5054405;28;20031;-56
2022/02/14 01:25:18;;;;;;;10.63;4.15;;;11.00;99.90;;;;;;5054551;28;20033;-56
2022/02/14 01:27:44;;;;;;;6.60;4.30;;;11.10;99.90;;;;;;5054187;28;20111;-56
2022/02/14 01:30:10;;;;;;;10.57;4.60;;;11.00;99.90;;;;;;5053757;28;20118;-56
2022/02/14 01:32:36;;;;;;;9.52;4.13;;;11.00;99.90;;;;;;5053761;28;20025;-56
2022/02/14 01:35:04;;;;;;;8.95;4.88;;;11.00;99.90;;;;;;5054009;28;20344;-56
2022/02/14 01:37:32;;;;;;;10.73;5.05;;;10.90;99.90;;;;;;5053555;28;20025;-56
2022/02/14 01:39:58;;;;;;;7.30;4.93;;;10.90;99.90;;;;;;5053847;28;20025;-56
2022/02/14 01:42:24;;;;;;;11.05;5.35;;;10.90;99.90;;;;;;5053840;28;20305;-56
2022/02/14 01:44:52;;;;;;;10.18;4.45;;;10.90;99.90;;;;;;5053860;28;20029;-56
2022/02/14 01:47:20;;;;;;;10.23;5.15;;;10.90;99.90;;;;;;5053080;28;20482;-56
2022/02/14 01:49:48;;;;;;;6.13;3.75;;;10.90;99.90;;;;;;5053937;28;20079;-56
2022/02/14 01:52:15;;;;;;;11.13;5.25;;;10.80;99.90;;;;;;5053746;28;20040;-56
2022/02/14 01:54:44;;;;;;;9.25;4.68;;;10.80;99.90;;;;;;5053304;28;20501;-56
2022/02/14 01:57:12;;;;;;;8.05;4.90;;;10.90;99.90;;;;;;5051924;28;20506;-56
2022/02/14 01:59:39;;;;;;;9.32;4.60;;;10.90;99.90;;;;;;5053558;28;20378;-56
2022/02/14 02:02:07;;;;;;;13.70;5.55;;;10.90;99.90;;;;;;5053597;28;20486;-57
2022/02/14 02:04:33;;;;;;;10.70;4.97;;;10.90;99.90;;;;;;5053682;28;20104;-57
2022/02/14 02:06:59;;;;;;;9.82;5.05;;;10.90;99.90;;;;;;5053195;28;20486;-57
2022/02/14 02:09:25;;;;;;;9.25;4.47;;;10.80;99.90;;;;;;5053492;28;20100;-57
2022/02/14 02:14:35;;;;;;;12.73;3.95;;;10.80;99.90;;;;;;5053356;28;20102;-57
2022/02/14 02:17:01;;;;;;;5.53;3.10;;;10.90;99.90;;;;;;5053453;28;20024;-57
2022/02/14 02:19:27;;;;;;;8.65;3.30;;;10.90;99.90;;;;;;5053010;28;20025;-57
2022/02/14 02:21:53;;;;;;;6.78;2.90;;;10.90;99.90;;;;;;5051731;28;20021;-57
2022/02/14 02:24:21;;;;;;;6.07;3.88;;;10.90;99.90;;;;;;5053216;28;20035;-57
2022/02/14 02:26:55;;;;;;;6.03;2.75;;;10.80;99.90;;;;;;5053002;28;20071;-57
2022/02/14 02:29:21;;;;;;;5.88;3.25;;;10.90;99.90;;;;;;5053712;28;20522;-56
2022/02/14 02:31:47;;;;;;;5.03;2.63;;;10.90;99.90;;;;;;5053122;28;20036;-56
2022/02/14 02:34:13;;;;;;;4.85;2.20;;;10.90;99.90;;;;;;5053179;28;20033;-56
2022/02/14 02:36:55;;;;;;;8.07;2.00;;;10.90;99.90;;;;;;5052900;28;20390;-56
2022/02/14 02:39:21;;;;;;;8.05;3.00;;;11.00;99.90;;;;;;5052711;28;20025;-56
2022/02/14 02:41:47;;;;;;;5.68;2.10;;;11.00;99.90;;;;;;5053292;28;20471;-56
2022/02/14 02:44:13;;;;;;;9.30;1.85;;;11.00;99.90;;;;;;5052901;28;20036;-56
2022/02/14 02:46:40;;;;;;;6.60;2.00;;;11.00;99.90;;;;;;5052726;28;20025;-57
2022/02/14 02:49:09;;;;;;;3.30;1.50;;;11.00;99.90;;;;;;5052393;28;20028;-57
2022/02/14 02:51:39;;;;;;;5.88;2.15;;;11.00;99.90;;;;;;5051974;28;20033;-57
2022/02/14 02:54:06;;;;;;;3.45;1.25;;;10.90;99.90;;;;;;5052722;28;20032;-56
2022/02/14 02:56:36;;;;;;;4.00;2.00;;;10.90;99.90;;;;;;5052077;28;20036;-56
2022/02/14 02:59:02;;;;;;;4.63;2.25;;;11.00;99.90;;;;;;5052602;28;20029;-56
2022/02/14 03:01:28;;;;;;;6.60;1.83;;;10.90;99.90;;;;;;5051749;28;20033;-56
2022/02/14 03:03:54;;;;;;;4.80;1.92;;;10.90;99.90;;;;;;5052445;28;20374;-57
2022/02/14 03:06:23;;;;;;;5.30;1.80;;;10.90;99.90;;;;;;5052287;28;20063;-57
2022/02/14 03:08:49;;;;;;;5.57;2.20;;;10.90;99.90;;;;;;5051195;28;20028;-57
2022/02/14 03:11:16;;;;;;;7.47;1.73;;;10.90;99.90;;;;;;5052092;28;20035;-57
2022/02/14 03:13:43;;;;;;;5.03;1.70;;;10.90;99.90;;;;;;5052188;28;20051;-57
2022/02/14 03:16:09;;;;;;;7.90;2.65;;;11.00;99.90;;;;;;5052073;28;20025;-57
2022/02/14 03:18:35;;;;;;;2.38;1.70;;;11.00;99.90;;;;;;5051927;28;20021;-57
2022/02/14 03:21:01;;;;;;;8.15;1.83;;;11.00;99.90;;;;;;5052364;28;20032;-57
2022/02/14 03:23:27;;;;;;;4.97;2.03;;;11.00;99.90;;;;;;5052138;28;20025;-57
2022/02/14 03:25:53;;;;;;;7.53;1.60;;;10.90;99.90;;;;;;5051788;28;20021;-57
2022/02/14 03:28:19;;;;;;;3.80;1.90;;;10.90;99.90;;;;;;5051805;28;20044;-57
2022/02/14 03:30:44;;;;;;;4.38;2.00;;;10.90;99.90;;;;;;5051611;28;20041;-56
2022/02/14 03:33:10;;;;;;;5.35;1.75;;;10.80;99.90;;;;;;5051715;28;20112;-56
2022/02/14 03:35:36;;;;;;;4.18;1.60;;;10.80;99.90;;;;;;5051913;28;20639;-56
2022/02/14 03:38:06;;;;;;;2.80;2.10;;;10.80;99.90;;;;;;5050594;28;20036;-56
2022/02/14 03:40:38;;;;;;;5.15;2.00;;;10.80;99.90;;;;;;5051719;28;20498;-56
2022/02/14 03:43:06;;;;;;;4.20;1.60;;;10.80;99.90;;;;;;5051744;28;20021;-56
2022/02/14 03:45:33;;;;;;;4.80;1.95;;;10.80;99.90;;;;;;5051893;28;20469;-56
2022/02/14 03:47:59;;;;;;;5.00;1.77;;;10.80;99.90;;;;;;5051546;28;20029;-59
2022/02/14 03:50:26;;;;;;;6.18;2.00;;;10.80;99.90;;;;;;5051242;28;20071;-56
2022/02/14 03:52:51;;;;;;;4.78;2.00;;;10.80;99.90;;;;;;5051529;28;20079;-56
2022/02/14 03:55:18;;;;;;;6.47;1.50;;;10.70;99.90;;;;;;5050958;28;20036;-56
2022/02/14 03:57:45;;;;;;;4.20;2.00;;;10.70;99.90;;;;;;5051147;28;20040;-56
2022/02/14 04:00:13;;;;;;;4.43;1.83;;;10.70;99.90;;;;;;5051681;28;20032;-56
2022/02/14 04:02:40;;;;;;;7.65;2.38;;;10.70;99.90;;;;;;5052001;28;20028;-56
2022/02/14 04:05:05;;;;;;;7.05;2.00;;;10.80;99.90;;;;;;5051014;28;20083;-56
2022/02/14 04:07:32;;;;;;;8.63;2.03;;;10.80;99.90;;;;;;5050855;28;20429;-56
2022/02/14 04:09:57;;;;;;;4.57;1.88;;;10.80;99.90;;;;;;5050882;28;20037;-56
2022/02/14 04:12:23;;;;;;;4.72;2.28;;;10.80;99.90;;;;;;5051510;28;20090;-56
2022/02/14 04:14:49;;;;;;;6.38;2.15;;;10.80;99.90;;;;;;5051799;28;20509;-56
2022/02/14 04:17:14;;;;;;;7.35;2.40;;;10.80;99.90;;;;;;5050964;28;20025;-56
2022/02/14 04:19:40;;;;;;;9.15;2.20;;;10.90;99.90;;;;;;5050580;28;20561;-56
2022/02/14 04:22:07;;;;;;;3.67;1.50;;;10.90;99.90;;;;;;5051095;28;20494;-56
2022/02/14 04:24:32;;;;;;;3.60;1.42;;;11.00;99.90;;;;;;5051631;28;20029;-56
2022/02/14 04:26:58;;;;;;;6.45;2.65;;;11.00;99.90;;;;;;5049841;28;20032;-56
2022/02/14 04:29:24;;;;;;;5.30;2.05;;;10.90;99.90;;;;;;5051315;28;20616;-56
2022/02/14 04:31:50;;;;;;;5.93;1.98;;;11.00;99.90;;;;;;5051127;28;20025;-55
2022/02/14 04:34:18;;;;;;;5.15;2.10;;;11.00;99.90;;;;;;5050834;28;20386;-55
2022/02/14 04:36:45;;;;;;;5.53;2.20;;;11.00;99.90;;;;;;5050331;28;20021;-55
2022/02/14 04:39:11;;;;;;;5.80;2.22;;;11.00;99.90;;;;;;5049992;28;20029;-56
2022/02/14 04:41:36;;;;;;;7.57;2.08;;;11.10;99.90;;;;;;5051180;28;20429;-56
2022/02/14 04:44:02;;;;;;;2.90;1.63;;;11.10;99.90;;;;;;5051062;28;20100;-56
2022/02/14 04:46:28;;;;;;;4.10;2.00;;;11.20;99.90;;;;;;5051718;28;20033;-56
2022/02/14 04:48:53;;;;;;;5.13;1.90;;;11.20;99.90;;;;;;5050846;28;20035;-56
2022/02/14 04:51:19;;;;;;;8.70;2.00;;;11.20;99.90;;;;;;5051042;28;20103;-55
2022/02/14 04:53:44;;;;;;;5.70;2.25;;;11.20;99.90;;;;;;5050866;28;20021;-55
2022/02/14 04:56:10;;;;;;;5.80;2.17;;;11.20;99.90;;;;;;5051015;28;20455;-55
2022/02/14 04:58:36;;;;;;;5.57;2.15;;;11.30;99.90;;;;;;5051063;28;20067;-56
2022/02/14 05:01:01;;;;;;;6.38;2.38;;;11.30;99.90;;;;;;5050660;28;20100;-56
2022/02/14 05:03:27;;;;;;;2.97;1.35;;;11.30;99.90;;;;;;5050903;28;20036;-56
2022/02/14 05:05:53;;;;;;;5.07;2.33;;;11.30;99.90;;;;;;5050182;28;20036;-56
2022/02/14 05:08:18;;;;;;;6.60;2.28;;;11.30;99.90;;;;;;5050463;28;20032;-56
2022/02/14 05:10:44;;;;;;;4.18;2.20;;;11.40;99.90;;;;;;5049065;28;20482;-56
2022/02/14 05:13:09;;;;;;;6.78;2.30;;;11.50;99.90;;;;;;5050659;28;20048;-56
2022/02/14 05:15:35;;;;;;;4.00;1.92;;;11.50;99.90;;;;;;5051324;28;20021;-56
2022/02/14 05:18:00;;;;;;;10.20;2.38;;;11.50;99.90;;;;;;5050536;28;20080;-56
2022/02/14 05:20:26;;;;;;;2.80;1.70;;;11.40;99.90;;;;;;5050585;28;20032;-56
2022/02/14 05:22:52;;;;;;;5.35;1.90;;;11.40;99.90;;;;;;5050060;28;20394;-56
2022/02/14 05:25:18;;;;;;;8.88;2.40;;;11.50;99.90;;;;;;5050765;28;20033;-56
2022/02/14 05:27:43;;;;;;;6.50;2.30;;;11.50;99.90;;;;;;5049886;28;20028;-56
2022/02/14 05:30:09;;;;;;;8.32;2.30;;;11.50;99.90;;;;;;5050009;28;20041;-56
2022/02/14 05:32:35;;;;;;;6.35;2.45;;;11.50;99.90;;;;;;5053220;28;20033;-56
2022/02/14 05:35:01;;;;;;;8.30;2.50;;;11.50;99.90;;;;;;5054019;28;20033;-56
2022/02/14 05:37:27;;;;;;;2.65;1.48;;;11.40;99.90;;;;;;5053664;28;20032;-56
2022/02/14 05:39:52;;;;;;;6.00;2.40;;;11.20;99.90;;;;;;5054264;28;20092;-56
2022/02/14 05:42:18;;;;;;;5.82;2.20;;;11.10;99.90;;;;;;5053918;28;20021;-56
2022/02/14 05:44:44;;;;;;;6.50;2.30;;;10.90;99.90;;;;;;5054278;28;20021;-56
2022/02/14 05:47:10;;;;;;;7.35;2.30;;;10.90;99.90;;;;;;5053605;28;20401;-56
2022/02/14 05:49:36;;;;;;;7.50;2.40;;;10.90;99.90;;;;;;5053907;28;20029;-56
2022/02/14 05:52:02;;;;;;;3.47;2.42;;;10.80;99.90;;;;;;5053912;28;20104;-56
2022/02/14 05:54:28;;;;;;;6.40;2.47;;;10.70;99.90;;;;;;5053648;28;20025;-56
2022/02/14 05:56:54;;;;;;;5.05;1.77;;;10.50;99.90;;;;;;5053989;28;20390;-56
2022/02/14 05:59:20;;;;;;;2.28;1.70;;;10.20;99.90;;;;;;5053497;28;20107;-56
2022/02/14 06:01:46;;;;;;;5.82;1.73;;;10.00;99.90;;;;;;5053342;28;20052;-56
2022/02/14 06:04:12;;;;;;;3.33;1.10;;;9.90;99.90;;;;;;5053439;28;20029;-56
2022/02/14 06:06:38;;;;;;;2.72;1.13;;;9.70;99.90;;;;;;5053501;28;20032;-56
2022/02/14 06:09:04;;;;;;;2.10;1.00;;;9.60;99.90;;;;;;5052990;28;20028;-56
2022/02/14 06:11:30;;;;;;;2.60;0.80;;;9.50;99.90;;;;;;5053342;28;20025;-57
2022/02/14 06:13:56;;;;;;;2.72;1.25;;;9.40;99.90;;;;;;5053174;28;20663;-56
2022/02/14 06:16:21;;;;;;;2.55;0.80;;;9.30;99.90;;;;;;5052922;28;20036;-56
2022/02/14 06:18:47;;;;;;;1.23;0.90;;;9.20;99.90;;;;;;5053190;28;20032;-56
2022/02/14 06:21:13;;;;;;;2.17;0.70;;;9.20;99.90;;;;;;5053349;28;20028;-56
2022/02/14 06:23:38;;;;;;;1.63;1.00;;;9.10;99.90;;;;;;5053503;28;20109;-56
2022/02/14 06:26:05;;;;;;;2.67;1.30;;;9.10;99.90;;;;;;5053323;28;20025;-56
2022/02/14 06:28:37;;;;;;;1.85;1.23;;;9.10;99.90;;;;;;5053135;28;20478;-56
2022/02/14 06:31:04;;;;;;;3.05;1.55;;;9.10;99.90;;;;;;5053314;28;20029;-56
2022/02/14 06:33:30;;;;;;;2.08;1.38;;;9.00;99.90;;;;;;5053054;28;20087;-56
2022/02/14 06:35:55;;;;;;;2.00;1.38;;;9.00;99.90;;;;;;5053249;28;20021;-56
2022/02/14 06:38:21;;;;;;;1.35;1.00;;;9.00;99.90;;;;;;5052855;28;20079;-56
2022/02/14 06:40:46;;;;;;;2.30;1.17;;;9.10;99.90;;;;;;5052810;28;20026;-56
2022/02/14 06:43:12;;;;;;;1.13;1.00;;;9.10;99.90;;;;;;5051733;28;20050;-57
2022/02/14 06:45:38;;;;;;;1.20;0.90;;;9.00;99.90;;;;;;5047329;28;20024;-56
2022/02/14 06:48:04;;;;;;;1.48;1.25;;;9.10;99.90;;;;;;5032888;28;20079;-56
2022/02/14 06:50:29;;;;;;;2.22;1.00;;;9.00;99.90;;;;;;5032492;28;20075;-56
2022/02/14 06:52:55;;;;;;;1.13;0.98;;;9.10;99.90;;;;;;5049105;28;20021;-57
2022/02/14 06:55:21;;;;;;;1.15;0.90;;;9.10;99.90;;;;;;5052189;28;20040;-56
2022/02/14 06:57:46;;;;;;;1.63;1.20;;;9.00;99.90;;;;;;5050270;28;20021;-56
2022/02/14 07:00:14;;;;;;;1.60;1.50;;;8.90;99.90;;;;;;5051649;28;20029;-56
2022/02/14 07:02:43;;;;;;;2.70;2.00;;;8.70;99.90;;;;;;5050288;28;20549;-56
2022/02/14 07:05:16;;;;;;;2.20;1.88;;;8.60;99.90;;;;;;5048994;28;20025;-56
2022/02/14 07:07:42;;;;;;;;;;;8.60;99.90;;;;;;5054042;28;20410;-56
2022/02/14 07:10:08;;;;;;;2.70;1.40;;;8.50;99.90;;;;;;5043186;28;19909;-56
2022/02/14 07:12:34;;;;;;;5.25;2.65;;;8.50;99.90;;;;;;5030513;28;20051;-56
2022/02/14 07:15:00;;;;;;;4.68;2.55;;;8.50;99.90;;;;;;5041720;28;20072;-56
2022/02/14 07:17:25;;;;;;;5.13;2.72;;;8.50;99.90;;;;;;5049238;28;20028;-56
2022/02/14 07:19:51;;;;;;;4.57;1.80;;;8.60;99.90;;;;;;5049324;28;20494;-56
2022/02/14 07:22:16;;;;;;;2.13;1.40;;;8.60;99.90;;;;;;5049779;28;20112;-56
2022/02/14 07:24:42;;;;;;;1.63;1.20;;;8.60;99.90;;;;;;5051774;28;20037;-56
2022/02/14 07:27:08;;;;;;;2.90;1.17;;;8.70;99.90;;;;;;5051124;28;20025;-56
2022/02/14 07:29:33;;;;;;;4.20;1.50;;;8.70;99.90;;;;;;5049162;28;20057;-56
2022/02/14 07:32:00;;;;;;;4.00;1.20;;;8.70;99.90;;;;;;5050453;28;20497;-56
2022/02/14 07:34:25;;;;;;;3.13;0.82;;;8.70;99.90;;;;;;5047249;28;20028;-56
2022/02/14 07:36:51;;;;;;;2.78;0.85;;;8.80;99.90;;;;;;5048379;28;20025;-56
2022/02/14 07:39:17;;;;;;;3.22;0.90;;;8.80;99.90;;;;;;5046090;28;20029;-56
2022/02/14 07:41:43;;;;;;;1.95;0.60;;;8.80;99.90;;;;;;5047738;28;20386;-56
2022/02/14 07:44:09;;;;;;;2.47;0.75;;;8.80;99.90;;;;;;5051226;28;20127;-56
2022/02/14 07:46:34;;;;;;;4.18;0.73;;;8.90;99.90;;;;;;5045706;28;20131;-56
2022/02/14 07:49:00;;;;;;;4.53;1.17;;;8.80;99.90;;;;;;5044766;28;20548;-56
2022/02/14 07:51:25;;;;;;;2.70;0.55;;;8.90;99.90;;;;;;5046686;28;20421;-56
2022/02/14 07:53:51;;;;;;;3.85;0.90;;;8.90;99.90;;;;;;5043968;28;20036;-56
2022/02/14 07:56:17;;;;;;;3.22;0.73;;;8.80;99.90;;;;;;5048495;28;20470;-56
2022/02/14 07:58:43;;;;;;;4.57;0.88;;;8.90;99.90;;;;;;5051300;28;20016;-56
2022/02/14 08:01:09;;;;;;;1.92;0.70;;;8.90;99.90;;;;;;5050113;28;21341;-56
2022/02/14 08:03:35;;;;;;;1.63;0.70;;;9.00;99.90;;;;;;5053169;28;20073;-56
2022/02/14 08:06:01;;;;;;;2.60;0.65;;;8.90;99.90;;;;;;5049599;28;20432;-56
2022/02/14 08:08:27;;;;;;;1.52;0.80;;;8.90;99.90;;;;;;5050185;28;20085;-56
2022/02/14 08:10:54;;;;;;;3.33;0.70;;;8.90;99.90;;;;;;5048073;28;20036;-56
2022/02/14 08:13:19;;;;;;;4.88;0.60;;;8.90;99.90;;;;;;5047838;28;20769;-56
2022/02/14 08:15:45;;;;;;;7.20;1.15;;;8.90;99.90;;;;;;5043661;28;20128;-56
2022/02/14 08:18:11;;;;;;;2.80;1.13;;;9.00;99.90;;;;;;5046795;28;20613;-56
2022/02/14 08:20:38;;;;;;;1.95;1.33;;;9.00;99.90;;;;;;5045532;28;20087;-56
2022/02/14 08:23:04;;;;;;;5.03;1.50;;;9.00;99.90;;;;;;5044180;28;20025;-56
2022/02/14 08:25:31;;;;;;;4.30;1.80;;;9.10;99.90;;;;;;5046145;28;20028;-56
2022/02/14 08:28:01;;;;;;;5.38;2.20;;;9.10;99.90;;;;;;5048192;28;20044;-55
2022/02/14 08:30:27;;;;;;;2.50;1.63;;;9.10;99.90;;;;;;5048211;28;20056;-56
2022/02/14 08:32:53;;;;;;;2.67;1.95;;;9.20;99.90;;;;;;5046854;28;20086;-56
2022/02/14 08:35:18;;;;;;;1.80;1.50;;;9.50;99.90;;;;;;5049139;28;20036;-56
2022/02/14 08:37:45;;;;;;;1.70;0.85;;;9.60;99.90;;;;;;5045716;28;20117;-56
2022/02/14 08:40:13;;;;;;;3.45;1.20;;;9.40;99.90;;;;;;5051377;28;20116;-56
2022/02/14 08:42:39;;;;;;;1.27;1.00;;;9.30;99.90;;;;;;5047048;28;20033;-56
2022/02/14 08:45:06;;;;;;;2.55;0.90;;;9.20;99.90;;;;;;5051349;28;20032;-56
2022/02/14 08:47:31;;;;;;;1.88;1.00;;;9.20;99.90;;;;;;5043868;28;20036;-56
2022/02/14 08:49:59;;;;;;;1.58;0.70;;;9.20;99.90;;;;;;5050527;28;20040;-56
2022/02/14 08:52:27;;;;;;;4.47;0.85;;;9.20;99.90;;;;;;5050738;28;20021;-56
2022/02/14 08:54:54;;;;;;;2.60;0.70;;;9.10;99.90;;;;;;5045102;28;20098;-55
2022/02/14 08:57:20;;;;;;;2.63;0.63;;;9.20;99.90;;;;;;5046248;28;20028;-55
2022/02/14 08:59:45;;;;;;;5.35;1.20;;;9.20;99.90;;;;;;5048061;28;20028;-55
2022/02/14 09:02:11;;;;;;;2.47;0.70;;;9.10;99.90;;;;;;5049222;28;20112;-53
2022/02/14 09:04:37;;;;;;;1.70;0.75;;;9.20;99.90;;;;;;5046466;28;20086;-53
2022/02/14 09:07:03;;;;;;;3.50;0.73;;;9.70;99.90;;;;;;5054079;28;20028;-53
2022/02/14 09:09:30;;;;;;;1.80;0.65;;;10.00;99.90;;;;;;5048493;28;20500;-53
2022/02/14 09:11:56;;;;;;;2.95;0.65;;;10.60;99.90;;;;;;5050087;28;20025;-53
2022/02/14 09:14:22;;;;;;;5.18;1.00;;;10.90;99.90;;;;;;5048982;28;20486;-53
2022/02/14 09:16:49;;;;;;;3.33;1.00;;;11.30;99.90;;;;;;5051386;28;20067;-54
2022/02/14 09:19:15;;;;;;;5.38;0.65;;;11.50;99.90;;;;;;5051872;28;20248;-54
2022/02/14 09:21:42;;;;;;;1.55;0.70;;;11.70;99.90;;;;;;5047665;28;21289;-54
2022/02/14 09:24:12;;;;;;;5.07;1.35;;;11.50;99.90;;;;;;5052774;28;20035;-54
2022/02/14 09:26:39;;;;;;;1.27;0.60;;;11.50;99.90;;;;;;5049489;28;20048;-54
2022/02/14 09:29:05;;;;;;;2.13;0.70;;;11.60;99.90;;;;;;5045880;28;20136;-55
2022/02/14 09:31:30;;;;;;;3.03;0.80;;;11.60;99.90;;;;;;5047721;28;20132;-54
2022/02/14 09:33:56;;;;;;;2.55;0.90;;;11.20;99.90;;;;;;5045123;28;20040;-54
2022/02/14 09:36:22;;;;;;;1.05;0.60;;;10.80;99.90;;;;;;5050005;28;20084;-55
2022/02/14 09:38:49;;;;;;;3.70;0.85;;;11.20;99.90;;;;;;5049840;28;20048;-54
2022/02/14 09:41:16;;;;;;;2.90;0.85;;;11.20;99.90;;;;;;5054937;28;20033;-54
2022/02/14 09:43:47;;;;;;;7.50;1.25;;;11.20;99.90;;;;;;5053372;28;20445;-56
2022/02/14 09:46:13;;;;;;;9.52;2.05;;;10.90;99.90;;;;;;5053385;28;20402;-55
2022/02/14 09:48:44;;;;;;;4.72;1.00;;;11.10;99.90;;;;;;5045433;28;20397;-55
2022/02/14 09:51:12;;;;;;;2.58;1.00;;;11.70;99.90;;;;;;5051933;28;20033;-55
2022/02/14 09:53:40;;;;;;;6.43;0.90;;;12.20;99.90;;;;;;5045209;28;20024;-55
2022/02/14 09:56:06;;;;;;;3.05;0.70;;;12.40;99.90;;;;;;5047963;28;20029;-56
2022/02/14 09:58:32;;;;;;;2.85;1.10;;;12.20;99.90;;;;;;5053246;28;20033;-56
2022/02/14 10:00:59;;;;;;;5.43;1.10;;;11.70;99.90;;;;;;5052017;28;20056;-56
2022/02/14 10:03:24;;;;;;;7.72;1.30;;;11.50;99.90;;;;;;5048982;28;20029;-56
2022/02/14 10:05:57;;;;;;;7.40;1.67;;;12.00;99.90;;;;;;5050699;28;20063;-56
2022/02/14 10:08:25;;;;;;;5.50;1.17;;;12.10;99.90;;;;;;5050832;28;20317;-56
2022/02/14 10:10:53;;;;;;;9.43;1.52;;;11.70;99.90;;;;;;5048935;28;20022;-56
2022/02/14 10:13:37;;;;;;;3.58;1.25;;;11.50;99.90;;;;;;5044360;28;20116;-56
2022/02/14 10:16:08;;;;;;;6.78;1.63;;;11.20;99.90;;;;;;5048154;28;20032;-56
2022/02/14 10:18:35;;;;;;;9.55;1.67;;;11.30;99.90;;;;;;5047918;28;20767;-56
2022/02/14 10:21:15;;;;;;;4.45;1.00;;;11.50;99.90;;;;;;5048507;28;20147;-56
2022/02/14 10:24:01;;;;;;;9.48;1.55;;;11.80;99.90;;;;;;5051042;28;20047;-57
2022/02/14 10:26:36;;;;;;;7.70;1.60;;;11.40;99.90;;;;;;5053624;28;20077;-56
2022/02/14 10:29:27;;;;;;;6.43;1.10;;;11.40;99.90;;;;;;5050433;28;20052;-56
2022/02/14 10:32:24;;;;;;;5.20;1.38;;;11.50;99.90;;;;;;5048764;28;20063;-56
2022/02/14 10:34:58;;;;;;;13.48;1.90;;;11.50;99.90;;;;;;5063919;28;20052;-56
2022/02/14 10:37:40;;;;;;;7.30;1.40;;;11.30;99.90;;;;;;5044436;28;20049;-56
2022/02/14 10:40:07;;;;;;;7.20;1.30;;;11.30;99.90;;;;;;5044882;28;20020;-56
2022/02/14 10:42:38;;;;;;;4.72;0.95;;;11.00;99.90;;;;;;5048755;28;20029;-56
2022/02/14 10:45:08;;;;;;;2.28;0.80;;;10.80;99.90;;;;;;5047314;28;20057;-56
2022/02/14 10:47:35;;;;;;;9.48;1.92;;;10.90;99.90;;;;;;5049903;28;20068;-56
2022/02/14 10:50:19;;;;;;;4.15;0.82;;;10.90;99.90;;;;;;5051645;28;20075;-56
2022/02/14 10:52:53;;;;;;;5.35;1.10;;;10.80;99.90;;;;;;5046962;28;20036;-56
2022/02/14 10:55:27;;;;;;;3.80;1.10;;;10.60;99.90;;;;;;5042374;28;20045;-56
2022/02/14 10:57:57;;;;;;;6.25;1.80;;;10.50;99.90;;;;;;5050286;28;20099;-56
2022/02/14 11:00:27;;;;;;;8.73;1.58;;;10.50;99.90;;;;;;5044745;28;20021;-56
2022/02/14 11:02:58;;;;;;;5.78;1.60;;;10.70;99.90;;;;;;5045181;28;20183;-55
2022/02/14 11:05:26;;;;;;;4.10;0.88;;;11.10;99.90;;;;;;5045656;28;20501;-56
2022/02/14 11:07:52;;;;;;;7.95;1.48;;;11.70;99.90;;;;;;5046717;28;20087;-56
2022/02/14 11:10:19;;;;;;;13.85;1.77;;;11.90;99.90;;;;;;5048691;28;20035;-59
2022/02/14 11:12:56;;;;;;;7.70;1.35;;;11.80;99.90;;;;;;5048929;28;20033;-56
2022/02/14 11:15:25;;;;;;;6.03;1.38;;;11.50;99.90;;;;;;5049412;28;20076;-55
2022/02/14 11:18:03;;;;;;;7.38;1.45;;;11.30;99.90;;;;;;5050164;28;20025;-55
2022/02/14 11:20:32;;;;;;;8.82;1.50;;;11.10;99.90;;;;;;5043592;28;20688;-56
2022/02/14 11:23:00;;;;;;;7.65;1.80;;;11.20;99.90;;;;;;5043596;28;20108;-57
2022/02/14 11:25:56;;;;;;;8.32;1.45;;;11.20;99.90;;;;;;5045280;28;20579;-56
2022/02/14 11:28:48;;;;;;;6.70;1.52;;;11.10;99.90;;;;;;5042009;28;20132;-56
2022/02/14 11:31:17;;;;;;;6.50;1.77;;;11.10;99.90;;;;;;5042432;28;20091;-56
2022/02/14 11:33:58;;;;;;;6.82;1.65;;;11.20;99.90;;;;;;5049735;28;20024;-57
2022/02/14 11:36:27;;;;;;;8.13;1.98;;;11.10;99.90;;;;;;5051484;28;20029;-56
2022/02/14 11:38:54;;;;;;;7.53;2.50;;;11.10;99.90;;;;;;5055027;28;20013;-55
2022/02/14 11:41:41;;;;;;;7.35;2.00;;;10.80;99.90;;;;;;5046932;28;20092;-56
2022/02/14 11:44:21;;;;;;;8.05;2.17;;;10.60;99.90;;;;;;5052061;28;20028;-55
2022/02/14 11:46:53;;;;;;;12.68;2.40;;;10.40;99.90;;;;;;5045116;28;20028;-55
2022/02/14 11:49:19;;;;;;;5.13;1.65;;;10.30;99.90;;;;;;5043895;28;20493;-56
2022/02/14 11:51:53;;;;;;;13.57;2.72;;;10.50;99.90;;;;;;5050250;28;20078;-56
2022/02/14 11:54:34;;;;;;;8.85;2.63;;;10.70;99.90;;;;;;5042630;28;20433;-55
2022/02/14 11:57:31;;;;;;;14.80;2.63;;;11.00;99.90;;;;;;5046723;28;20478;-54
2022/02/14 12:00:12;;;;;;;10.68;2.08;;;11.10;99.90;;;;;;5046820;28;20037;-54
2022/02/14 12:02:53;;;;;;;10.70;2.60;;;11.10;99.90;;;;;;5048251;28;20386;-55
2022/02/14 12:05:42;;;;;;;7.40;1.83;;;11.60;99.90;;;;;;5050325;28;20402;-54
2022/02/14 12:08:12;;;;;;;6.28;1.42;;;11.40;99.90;;;;;;5057438;28;20176;-53
2022/02/14 12:10:57;;;;;;;8.82;1.70;;;11.30;99.90;;;;;;5044593;28;20036;-54
2022/02/14 12:13:27;;;;;;;6.35;1.42;;;11.30;99.90;;;;;;5046406;28;20036;-55
2022/02/14 12:21:22;;;;;;;8.27;1.70;;;11.20;99.90;;;;;;5046054;28;20043;-54
2022/02/14 12:23:57;;;;;;;10.02;2.65;;;11.10;99.90;;;;;;5042893;28;20277;-55
2022/02/14 12:26:26;;;;;;;9.27;1.40;;;10.80;99.90;;;;;;5041230;28;20029;-54
2022/02/14 12:31:46;;;;;;;6.28;1.70;;;10.20;99.90;;;;;;5045791;28;20051;-54
2022/02/14 12:34:12;;;;;;;6.63;1.60;;;10.10;99.90;;;;;;5044050;28;20037;-54
2022/02/14 12:36:38;;;;;;;10.45;1.92;;;10.20;99.90;;;;;;5046755;28;20086;-54
2022/02/14 12:39:04;;;;;;;14.65;2.35;;;10.30;99.90;;;;;;5050930;28;20032;-54
2022/02/14 12:41:30;;;;;;;8.60;1.70;;;10.40;99.90;;;;;;5049940;28;20732;-55
2022/02/14 12:43:55;;;;;;;9.23;1.83;;;10.40;99.90;;;;;;5043194;28;20021;-54
2022/02/14 12:46:23;;;;;;;8.80;1.45;;;10.20;99.90;;;;;;5050775;28;20201;-54
2022/02/14 12:48:51;;;;;;;3.45;1.08;;;9.90;99.90;;;;;;5050699;28;20493;-54
2022/02/14 12:51:27;;;;;;;8.18;1.63;;;9.40;99.90;;;;;;5051495;28;20033;-54
2022/02/14 12:53:56;;;;;;;10.60;1.73;;;9.50;99.90;;;;;;5051628;28;20029;-55
2022/02/14 12:56:27;;;;;;;7.70;1.20;;;11.10;99.90;;;;;;5050413;28;20107;-55
2022/02/14 12:58:55;;;;;;;4.55;1.42;;;12.00;99.90;;;;;;5049662;28;20025;-54
2022/02/14 13:01:28;;;;;;;6.70;1.42;;;12.70;99.90;;;;;;5047329;28;20854;-54